createdAt,value
2023-01-23T00:00:12.935Z,4.10
2023-01-23T00:03:00.252Z,4.00
2023-01-23T00:05:49.236Z,4.00
2023-01-23T00:08:37.179Z,4.00
2023-01-23T00:11:27.182Z,4.00
2023-01-23T00:14:14.820Z,4.10
2023-01-23T00:17:02.373Z,4.20
2023-01-23T00:19:49.447Z,4.10
2023-01-23T00:22:37.002Z,4.10
2023-01-23T00:25:23.997Z,4.10
2023-01-23T00:28:11.348Z,4.10
2023-01-23T00:31:10.257Z,4.10
2023-01-23T00:34:06.234Z,4.10
2023-01-23T00:36:53.707Z,4.00
2023-01-23T00:39:41.415Z,4.00
2023-01-23T00:42:28.557Z,4.00
2023-01-23T00:45:15.933Z,4.00
2023-01-23T00:50:32.656Z,3.90
2023-01-23T00:53:20.049Z,4.00
2023-01-23T00:56:07.847Z,4.00
2023-01-23T00:58:55.632Z,4.00
2023-01-23T01:01:43.217Z,4.10
2023-01-23T01:04:30.470Z,4.10
2023-01-23T01:07:17.919Z,4.10
2023-01-23T01:10:06.177Z,4.20
2023-01-23T01:12:54.123Z,4.20
2023-01-23T01:15:41.365Z,4.10
2023-01-23T01:18:28.938Z,4.00
2023-01-23T01:21:17.062Z,4.00
2023-01-23T01:24:04.452Z,4.00
2023-01-23T01:26:51.618Z,4.00
2023-01-23T01:29:39.057Z,3.90
2023-01-23T01:32:26.196Z,3.80
2023-01-23T01:35:13.694Z,3.70
2023-01-23T01:38:01.174Z,3.70
2023-01-23T01:40:48.822Z,3.70
2023-01-23T01:43:36.511Z,3.60
2023-01-23T01:46:29.011Z,3.60
2023-01-23T01:49:22.644Z,3.60
2023-01-23T01:52:14.891Z,3.60
2023-01-23T01:55:07.334Z,3.60
2023-01-23T01:57:54.724Z,3.60
2023-01-23T02:00:42.436Z,3.50
2023-01-23T02:03:30.269Z,3.50
2023-01-23T02:06:17.762Z,3.50
2023-01-23T02:09:08.395Z,3.50
2023-01-23T02:11:55.755Z,3.50
2023-01-23T02:14:43.759Z,3.50
2023-01-23T02:17:33.047Z,3.40
2023-01-23T02:20:26.519Z,3.40
2023-01-23T02:23:33.490Z,3.40
2023-01-23T02:26:23.752Z,3.40
2023-01-23T02:29:12.002Z,3.60
2023-01-23T02:31:59.598Z,3.60
2023-01-23T02:34:46.980Z,3.60
2023-01-23T02:37:35.428Z,3.60
2023-01-23T02:40:37.474Z,3.60
2023-01-23T02:43:28.529Z,3.60
2023-01-23T02:46:17.767Z,3.70
2023-01-23T02:49:05.457Z,3.70
2023-01-23T02:51:54.169Z,3.60
2023-01-23T02:54:41.479Z,3.70
2023-01-23T02:57:29.237Z,3.70
2023-01-23T03:00:17.143Z,3.70
2023-01-23T03:03:05.558Z,3.70
2023-01-23T03:05:54.164Z,3.70
2023-01-23T03:08:43.275Z,3.70
2023-01-23T03:11:30.497Z,3.70
2023-01-23T03:14:23.142Z,3.80
2023-01-23T03:17:11.002Z,3.80
2023-01-23T03:19:58.054Z,3.70
2023-01-23T03:22:46.781Z,3.70
2023-01-23T03:25:34.392Z,3.70
2023-01-23T03:28:39.416Z,3.70
2023-01-23T03:31:26.690Z,3.80
2023-01-23T03:34:14.179Z,3.70
2023-01-23T03:37:01.526Z,3.70
2023-01-23T03:40:06.870Z,3.80
2023-01-23T03:42:54.386Z,3.80
2023-01-23T03:45:41.656Z,3.80
2023-01-23T03:48:28.929Z,3.80
2023-01-23T03:51:16.480Z,3.80
2023-01-23T03:54:03.656Z,3.80
2023-01-23T03:56:51.279Z,3.70
2023-01-23T03:59:38.448Z,3.60
2023-01-23T04:02:26.133Z,3.70
2023-01-23T04:05:13.595Z,3.90
2023-01-23T04:08:00.641Z,3.90
2023-01-23T04:10:48.346Z,3.90
2023-01-23T04:13:35.826Z,3.90
2023-01-23T04:16:23.548Z,4.00
2023-01-23T04:19:10.681Z,4.00
2023-01-23T04:21:58.873Z,4.10
2023-01-23T04:24:46.089Z,4.00
2023-01-23T04:27:33.673Z,3.90
2023-01-23T04:30:21.099Z,3.90
2023-01-23T04:33:09.340Z,3.90
2023-01-23T04:35:59.704Z,4.00
2023-01-23T04:38:47.288Z,3.90
2023-01-23T04:41:34.912Z,3.90
2023-01-23T04:44:22.685Z,3.90
2023-01-23T04:47:10.179Z,3.90
2023-01-23T04:49:57.746Z,3.80
2023-01-23T04:52:44.868Z,3.80
2023-01-23T04:55:32.139Z,3.80
2023-01-23T04:58:20.758Z,3.90
2023-01-23T05:01:09.114Z,4.00
2023-01-23T05:03:56.289Z,4.00
2023-01-23T05:06:43.724Z,4.10
2023-01-23T05:09:31.225Z,4.10
2023-01-23T05:12:18.664Z,4.10
2023-01-23T05:15:06.488Z,4.20
2023-01-23T05:17:54.190Z,4.30
2023-01-23T05:20:41.803Z,4.10
2023-01-23T05:23:29.045Z,4.10
2023-01-23T05:26:16.614Z,4.00
2023-01-23T05:29:04.099Z,4.00
2023-01-23T05:31:51.693Z,4.00
2023-01-23T05:34:39.091Z,3.90
2023-01-23T05:37:26.283Z,3.90
2023-01-23T05:40:14.593Z,3.90
2023-01-23T05:43:01.882Z,4.00
2023-01-23T05:45:49.396Z,4.10
2023-01-23T05:48:36.390Z,4.10
2023-01-23T05:51:25.665Z,4.10
2023-01-23T05:54:12.791Z,4.10
2023-01-23T05:57:00.003Z,4.20
2023-01-23T05:59:47.201Z,4.10
2023-01-23T06:02:35.779Z,4.10
2023-01-23T06:05:23.416Z,4.00
2023-01-23T06:08:11.483Z,4.10
2023-01-23T06:10:59.996Z,4.10
2023-01-23T06:13:47.211Z,4.10
2023-01-23T06:16:34.426Z,4.10
2023-01-23T06:19:21.602Z,4.00
2023-01-23T06:22:09.056Z,4.00
2023-01-23T06:24:56.149Z,4.00
2023-01-23T06:27:43.624Z,4.10
2023-01-23T06:30:31.435Z,4.10
2023-01-23T06:33:18.783Z,4.10
2023-01-23T06:36:07.365Z,4.20
2023-01-23T06:38:55.276Z,4.30
2023-01-23T06:41:43.526Z,4.30
2023-01-23T06:44:32.278Z,4.20
2023-01-23T06:47:20.210Z,4.40
2023-01-23T06:50:07.820Z,4.50
2023-01-23T06:52:55.044Z,4.40
2023-01-23T06:55:42.245Z,4.40
2023-01-23T06:58:29.428Z,4.40
2023-01-23T07:01:20.613Z,4.30
2023-01-23T07:04:09.092Z,4.20
2023-01-23T07:06:56.547Z,4.10
2023-01-23T07:09:44.055Z,4.10
2023-01-23T07:12:31.076Z,4.10
2023-01-23T07:15:18.459Z,4.00
2023-01-23T07:18:06.053Z,4.00
2023-01-23T07:20:53.082Z,4.00
2023-01-23T07:23:40.303Z,4.10
2023-01-23T07:26:27.806Z,4.00
2023-01-23T07:29:15.196Z,3.90
2023-01-23T07:32:02.471Z,3.80
2023-01-23T07:34:49.976Z,3.80
2023-01-23T07:37:36.753Z,3.80
2023-01-23T07:40:24.880Z,3.80
2023-01-23T07:43:12.568Z,3.80
2023-01-23T07:46:00.936Z,3.70
2023-01-23T07:48:48.106Z,3.70
2023-01-23T07:51:35.822Z,3.70
2023-01-23T07:54:22.882Z,3.80
2023-01-23T07:57:10.414Z,3.80
2023-01-23T07:59:57.956Z,3.80
2023-01-23T08:02:45.246Z,3.80
2023-01-23T08:05:32.862Z,3.90
2023-01-23T08:08:20.366Z,3.90
2023-01-23T08:11:10.239Z,4.00
2023-01-23T08:13:57.450Z,4.00
2023-01-23T08:16:44.484Z,4.10
2023-01-23T08:19:32.073Z,4.00
2023-01-23T08:22:20.817Z,4.00
2023-01-23T08:25:10.029Z,4.10
2023-01-23T08:27:57.768Z,4.10
2023-01-23T08:30:45.290Z,4.20
2023-01-23T08:33:33.928Z,4.30
2023-01-23T08:36:22.956Z,4.40
2023-01-23T08:39:10.361Z,4.40
2023-01-23T08:41:57.835Z,4.50
2023-01-23T08:44:44.921Z,4.60
2023-01-23T08:47:34.095Z,4.70
2023-01-23T08:50:21.474Z,4.80
2023-01-23T08:53:09.888Z,4.70
2023-01-23T08:56:08.859Z,4.70
2023-01-23T08:58:56.623Z,4.70
2023-01-23T09:01:43.794Z,4.60
2023-01-23T09:04:31.067Z,4.40
2023-01-23T09:07:17.975Z,4.40
2023-01-23T09:10:05.805Z,4.30
2023-01-23T09:12:56.927Z,4.50
2023-01-23T09:15:44.373Z,4.50
2023-01-23T09:18:51.131Z,4.40
2023-01-23T09:21:38.213Z,4.40
2023-01-23T09:24:25.640Z,4.30
2023-01-23T09:27:12.900Z,4.30
2023-01-23T09:30:00.326Z,4.40
2023-01-23T09:32:47.827Z,4.40
2023-01-23T09:35:35.888Z,4.30
2023-01-23T09:38:23.162Z,4.30
2023-01-23T09:41:19.583Z,4.30
2023-01-23T09:44:27.593Z,4.30
2023-01-23T09:47:39.085Z,4.30
2023-01-23T09:50:29.364Z,4.30
2023-01-23T09:53:19.527Z,4.40
2023-01-23T09:56:24.821Z,4.60
2023-01-23T09:59:20.795Z,4.70
2023-01-23T10:02:20.260Z,4.80
2023-01-23T10:05:11.277Z,4.70
2023-01-23T10:08:36.252Z,4.90
2023-01-23T10:11:32.333Z,5.00
2023-01-23T10:14:26.432Z,5.00
2023-01-23T10:17:40.255Z,5.10
2023-01-23T10:20:39.781Z,5.30
2023-01-23T10:23:47.726Z,5.00
2023-01-23T10:26:43.842Z,5.10
2023-01-23T10:29:39.839Z,5.10
2023-01-23T10:32:30.341Z,4.90
2023-01-23T10:35:38.907Z,5.10
2023-01-23T10:38:46.181Z,5.00
2023-01-23T10:41:34.585Z,5.20
2023-01-23T10:44:22.981Z,5.30
2023-01-23T10:47:22.249Z,5.20
2023-01-23T10:50:10.340Z,5.20
2023-01-23T10:53:00.787Z,5.30
2023-01-23T10:55:48.944Z,5.40
2023-01-23T10:58:42.280Z,5.60
2023-01-23T11:01:32.607Z,5.50
2023-01-23T11:04:23.000Z,5.60
2023-01-23T11:07:25.763Z,5.50
2023-01-23T11:10:16.313Z,5.30
2023-01-23T11:13:03.759Z,5.30
2023-01-23T11:15:51.092Z,5.40
2023-01-23T11:18:43.746Z,5.50
2023-01-23T11:21:39.927Z,5.50
2023-01-23T11:24:40.405Z,5.40
2023-01-23T11:27:26.502Z,5.40
2023-01-23T11:30:34.579Z,5.50
2023-01-23T11:33:27.488Z,5.50
2023-01-23T11:36:38.489Z,5.80
2023-01-23T11:39:53.282Z,6.00
2023-01-23T11:42:42.903Z,6.40
2023-01-23T11:45:50.716Z,6.10
2023-01-23T11:49:14.002Z,6.00
2023-01-23T11:52:29.411Z,6.00
2023-01-23T11:55:40.889Z,6.10
2023-01-23T11:58:49.076Z,6.10
2023-01-23T12:02:02.546Z,6.00
2023-01-23T12:05:01.116Z,6.10
2023-01-23T12:08:07.640Z,6.40
2023-01-23T12:11:07.817Z,6.60
2023-01-23T12:14:00.335Z,6.90
2023-01-23T12:16:56.197Z,7.10
2023-01-23T12:19:56.285Z,7.40
2023-01-23T12:23:09.847Z,7.70
2023-01-23T12:26:02.948Z,7.50
2023-01-23T12:29:01.911Z,7.50
2023-01-23T12:32:04.404Z,7.80
2023-01-23T12:35:21.830Z,7.70
2023-01-23T12:38:34.670Z,7.70
2023-01-23T12:41:44.205Z,7.90
2023-01-23T12:44:40.833Z,7.80
2023-01-23T12:47:39.953Z,8.00
2023-01-23T12:50:41.317Z,8.20
2023-01-23T12:53:32.450Z,8.20
2023-01-23T12:56:25.613Z,8.20
2023-01-23T12:59:30.890Z,8.20
2023-01-23T13:02:26.916Z,8.10
2023-01-23T13:05:17.389Z,7.90
2023-01-23T13:08:22.856Z,8.10
2023-01-23T13:11:30.765Z,8.10
2023-01-23T13:15:00.301Z,7.90
2023-01-23T13:17:41.722Z,7.90
2023-01-23T13:20:50.053Z,7.90
2023-01-23T13:23:37.696Z,7.90
2023-01-23T13:26:29.151Z,7.90
2023-01-23T13:29:47.778Z,7.90
2023-01-23T13:32:35.098Z,7.60
2023-01-23T13:35:45.491Z,7.60
2023-01-23T13:38:37.825Z,7.70
2023-01-23T13:41:32.611Z,7.50
2023-01-23T13:44:40.326Z,7.50
2023-01-23T13:47:42.258Z,7.50
2023-01-23T13:50:32.723Z,7.30
2023-01-23T13:53:43.096Z,7.40
2023-01-23T13:56:39.433Z,7.10
2023-01-23T13:59:36.161Z,7.00
2023-01-23T14:02:47.082Z,7.10
2023-01-23T14:05:36.707Z,7.10
2023-01-23T14:08:26.424Z,7.00
2023-01-23T14:11:19.370Z,6.90
2023-01-23T14:14:26.073Z,7.00
2023-01-23T14:17:14.272Z,7.00
2023-01-23T14:20:04.600Z,6.90
2023-01-23T14:22:55.367Z,6.90
2023-01-23T14:25:43.814Z,6.90
2023-01-23T14:28:30.999Z,6.70
2023-01-23T14:31:24.954Z,6.90
2023-01-23T14:34:19.004Z,6.90
2023-01-23T14:37:09.013Z,6.70
2023-01-23T14:40:04.178Z,6.70
2023-01-23T14:43:03.418Z,6.40
2023-01-23T14:45:56.567Z,6.50
2023-01-23T14:48:44.796Z,6.30
2023-01-23T14:51:32.599Z,6.30
2023-01-23T14:54:22.808Z,6.20
2023-01-23T14:57:10.922Z,6.30
2023-01-23T14:59:59.514Z,6.10
2023-01-23T15:02:49.616Z,6.20
2023-01-23T15:05:38.705Z,6.20
2023-01-23T15:08:30.725Z,5.90
2023-01-23T15:11:20.893Z,5.70
2023-01-23T15:14:09.965Z,5.50
2023-01-23T15:17:05.564Z,5.60
2023-01-23T15:19:59.481Z,5.50
2023-01-23T15:22:47.041Z,5.60
2023-01-23T15:25:34.620Z,5.70
2023-01-23T15:28:43.537Z,5.50
2023-01-23T15:31:33.901Z,5.60
2023-01-23T15:34:24.704Z,5.40
2023-01-23T15:37:24.232Z,5.40
2023-01-23T15:40:19.700Z,5.40
2023-01-23T15:43:20.049Z,5.40
2023-01-23T15:46:11.890Z,5.20
2023-01-23T15:48:59.105Z,5.00
2023-01-23T15:51:46.245Z,4.90
2023-01-23T15:54:36.327Z,4.70
2023-01-23T15:57:23.850Z,4.70
2023-01-23T16:00:19.253Z,4.70
2023-01-23T16:03:06.890Z,4.50
2023-01-23T16:05:54.443Z,4.40
2023-01-23T16:08:41.872Z,4.50
2023-01-23T16:11:32.790Z,4.40
2023-01-23T16:14:20.927Z,4.50
2023-01-23T16:17:16.830Z,4.40
2023-01-23T16:19:57.267Z,4.40
2023-01-23T16:22:46.063Z,4.40
2023-01-23T16:25:44.009Z,4.40
2023-01-23T16:28:30.156Z,4.30
2023-01-23T16:31:18.658Z,4.30
2023-01-23T16:34:07.107Z,4.20
2023-01-23T16:36:57.825Z,4.20
2023-01-23T16:39:47.876Z,4.10
2023-01-23T16:42:34.915Z,4.20
2023-01-23T16:45:27.547Z,4.30
2023-01-23T16:48:25.388Z,4.30
2023-01-23T16:51:10.383Z,4.40
2023-01-23T16:54:06.026Z,4.60
2023-01-23T16:56:51.508Z,4.60
2023-01-23T16:59:41.650Z,4.70
2023-01-23T17:02:31.894Z,4.80
2023-01-23T17:05:20.463Z,4.80
2023-01-23T17:08:22.929Z,4.70
2023-01-23T17:11:11.831Z,4.70
2023-01-23T17:14:02.065Z,4.60
2023-01-23T17:16:52.121Z,4.50
2023-01-23T17:19:41.919Z,4.40
2023-01-23T17:22:32.919Z,4.40
2023-01-23T17:25:26.126Z,4.40
2023-01-23T17:28:13.569Z,4.30
2023-01-23T17:31:01.264Z,4.30
2023-01-23T17:33:51.452Z,4.20
2023-01-23T17:36:39.093Z,4.10
2023-01-23T17:39:26.319Z,4.00
2023-01-23T17:42:15.340Z,4.10
2023-01-23T17:45:02.218Z,4.20
2023-01-23T17:47:52.685Z,4.00
2023-01-23T17:50:39.845Z,4.10
2023-01-23T17:53:28.052Z,4.00
2023-01-23T17:56:15.893Z,4.00
2023-01-23T17:59:03.128Z,4.00
2023-01-23T18:01:50.813Z,3.90
2023-01-23T18:04:39.314Z,4.00
2023-01-23T18:07:26.934Z,4.00
2023-01-23T18:10:14.556Z,3.90
2023-01-23T18:13:10.610Z,3.90
2023-01-23T18:16:20.096Z,3.90
2023-01-23T18:19:10.058Z,3.90
2023-01-23T18:21:58.537Z,3.90
2023-01-23T18:24:46.089Z,3.90
2023-01-23T18:27:36.249Z,3.90
2023-01-23T18:30:47.773Z,3.90
2023-01-23T18:33:49.608Z,3.90
2023-01-23T18:36:54.972Z,3.90
2023-01-23T18:39:51.157Z,3.80
2023-01-23T18:42:44.733Z,3.90
2023-01-23T18:45:33.106Z,3.90
2023-01-23T18:48:25.466Z,3.90
2023-01-23T18:51:16.267Z,3.90
2023-01-23T18:54:22.981Z,3.90
2023-01-23T18:57:30.004Z,3.90
2023-01-23T19:00:20.725Z,4.00
2023-01-23T19:03:17.246Z,3.90
2023-01-23T19:06:06.372Z,3.90
2023-01-23T19:08:56.170Z,3.80
2023-01-23T19:11:56.389Z,3.80
2023-01-23T19:15:04.286Z,3.80
2023-01-23T19:18:06.485Z,3.80
2023-01-23T19:20:59.613Z,3.90
2023-01-23T19:23:50.175Z,3.80
2023-01-23T19:26:39.952Z,3.80
2023-01-23T19:29:27.072Z,3.80
2023-01-23T19:32:14.973Z,3.70
2023-01-23T19:35:13.330Z,3.80
2023-01-23T19:37:51.400Z,3.90
2023-01-23T19:40:39.886Z,3.80
2023-01-23T19:43:28.112Z,3.80
2023-01-23T19:46:16.235Z,3.80
2023-01-23T19:49:04.496Z,3.80
2023-01-23T19:51:51.950Z,3.80
2023-01-23T19:54:39.751Z,3.80
2023-01-23T19:57:26.895Z,3.80
2023-01-23T20:00:18.357Z,3.80
2023-01-23T20:03:06.068Z,3.80
2023-01-23T20:05:54.691Z,3.80
2023-01-23T20:08:42.156Z,3.70
2023-01-23T20:11:29.246Z,3.70
2023-01-23T20:14:16.486Z,3.70
2023-01-23T20:17:03.651Z,3.60
2023-01-23T20:19:53.288Z,3.70
2023-01-23T20:22:42.274Z,3.70
2023-01-23T20:25:29.864Z,3.70
2023-01-23T20:28:17.073Z,3.60
2023-01-23T20:31:07.184Z,3.70
2023-01-23T20:33:54.959Z,3.70
2023-01-23T20:36:42.541Z,3.80
2023-01-23T20:39:29.455Z,3.80
2023-01-23T20:42:16.775Z,3.80
2023-01-23T20:45:04.195Z,3.80
2023-01-23T20:47:51.047Z,3.70
2023-01-23T20:50:38.616Z,3.70
2023-01-23T20:53:31.567Z,3.80
2023-01-23T20:56:21.328Z,3.80
2023-01-23T20:59:19.142Z,3.70
2023-01-23T21:02:25.755Z,3.80
2023-01-23T21:05:13.480Z,3.80
2023-01-23T21:08:00.768Z,3.70
2023-01-23T21:10:48.116Z,3.70
2023-01-23T21:13:35.986Z,3.70
2023-01-23T21:16:23.310Z,3.70
2023-01-23T21:19:10.911Z,3.70
2023-01-23T21:21:58.627Z,3.70
2023-01-23T21:24:45.991Z,3.60
2023-01-23T21:27:33.580Z,3.70
2023-01-23T21:30:20.944Z,3.60
2023-01-23T21:33:08.195Z,3.70
2023-01-23T21:35:56.203Z,3.70
2023-01-23T21:38:43.418Z,3.60
2023-01-23T21:41:30.904Z,3.60
2023-01-23T21:44:18.477Z,3.70
2023-01-23T21:47:05.666Z,3.70
2023-01-23T21:49:52.710Z,3.70
2023-01-23T21:52:39.889Z,3.70
2023-01-23T21:55:27.040Z,3.70
2023-01-23T21:58:14.327Z,3.70
2023-01-23T22:01:22.383Z,3.70
2023-01-23T22:04:15.367Z,3.70
2023-01-23T22:07:02.697Z,3.70
2023-01-23T22:09:50.037Z,3.70
2023-01-23T22:12:37.406Z,3.60
2023-01-23T22:15:24.790Z,3.60
2023-01-23T22:18:12.275Z,3.60
2023-01-23T22:21:01.766Z,3.60
2023-01-23T22:23:49.075Z,3.50
2023-01-23T22:26:36.347Z,3.50
2023-01-23T22:29:23.737Z,3.50
2023-01-23T22:32:11.668Z,3.50
2023-01-23T22:34:59.253Z,3.50
2023-01-23T22:37:46.925Z,3.50
2023-01-23T22:40:34.483Z,3.60
2023-01-23T22:43:21.729Z,3.60
2023-01-23T22:46:11.630Z,3.60
2023-01-23T22:48:58.984Z,3.50
2023-01-23T22:51:46.475Z,3.50
2023-01-23T22:54:34.129Z,3.50
2023-01-23T22:57:21.428Z,3.50
2023-01-23T23:00:11.515Z,3.40
2023-01-23T23:02:58.805Z,3.40
2023-01-23T23:05:46.460Z,3.50
2023-01-23T23:08:34.648Z,3.40
2023-01-23T23:11:24.737Z,3.40
2023-01-23T23:14:11.872Z,3.40
2023-01-23T23:16:59.435Z,3.40
2023-01-23T23:19:46.352Z,3.40
2023-01-23T23:22:33.594Z,3.40
2023-01-23T23:25:21.437Z,3.50
2023-01-23T23:28:08.700Z,3.50
2023-01-23T23:30:56.255Z,3.40
2023-01-23T23:33:43.856Z,3.40
2023-01-23T23:36:31.197Z,3.40
2023-01-23T23:39:18.082Z,3.30
2023-01-23T23:42:05.126Z,3.30
2023-01-23T23:44:52.285Z,3.30
2023-01-23T23:47:39.215Z,3.40
2023-01-23T23:50:26.445Z,3.40
2023-01-23T23:53:13.945Z,3.40
2023-01-23T23:56:02.605Z,3.40
2023-01-23T23:58:50.358Z,3.40
